sensor_id;sensor_type;location;lat;lon;timestamp;P1;durP1;ratioP1;P2;durP2;ratioP2
16693;SDS011;39538;52.196;9.892;2022-12-29T00:02:04;0.70;;;0.50;;
16693;SDS011;39538;52.196;9.892;2022-12-29T00:04:30;1.27;;;0.70;;
16693;SDS011;39538;52.196;9.892;2022-12-29T00:06:58;2.70;;;0.70;;
16693;SDS011;39538;52.196;9.892;2022-12-29T00:09:25;0.43;;;0.43;;
16693;SDS011;39538;52.196;9.892;2022-12-29T00:11:52;0.63;;;0.63;;
16693;SDS011;39538;52.196;9.892;2022-12-29T00:14:18;0.50;;;0.50;;
16693;SDS011;39538;52.196;9.892;2022-12-29T00:17:02;0.80;;;0.60;;
16693;SDS011;39538;52.196;9.892;2022-12-29T00:19:29;0.93;;;0.90;;
16693;SDS011;39538;52.196;9.892;2022-12-29T00:22:15;0.60;;;0.60;;
16693;SDS011;39538;52.196;9.892;2022-12-29T00:24:59;0.50;;;0.50;;
16693;SDS011;39538;52.196;9.892;2022-12-29T00:27:43;0.80;;;0.50;;
16693;SDS011;39538;52.196;9.892;2022-12-29T00:30:27;0.87;;;0.70;;
16693;SDS011;39538;52.196;9.892;2022-12-29T00:33:12;0.57;;;0.57;;
16693;SDS011;39538;52.196;9.892;2022-12-29T00:35:58;0.50;;;0.50;;
16693;SDS011;39538;52.196;9.892;2022-12-29T00:38:29;0.63;;;0.60;;
16693;SDS011;39538;52.196;9.892;2022-12-29T00:41:16;1.70;;;0.50;;
16693;SDS011;39538;52.196;9.892;2022-12-29T00:44:00;0.77;;;0.50;;
16693;SDS011;39538;52.196;9.892;2022-12-29T00:46:35;1.83;;;1.37;;
16693;SDS011;39538;52.196;9.892;2022-12-29T00:49:02;4.40;;;0.73;;
16693;SDS011;39538;52.196;9.892;2022-12-29T00:51:47;0.67;;;0.63;;
16693;SDS011;39538;52.196;9.892;2022-12-29T00:54:15;0.30;;;0.30;;
16693;SDS011;39538;52.196;9.892;2022-12-29T00:56:42;0.33;;;0.33;;
16693;SDS011;39538;52.196;9.892;2022-12-29T00:59:10;0.93;;;0.50;;
16693;SDS011;39538;52.196;9.892;2022-12-29T01:01:37;0.47;;;0.47;;
16693;SDS011;39538;52.196;9.892;2022-12-29T01:04:04;0.33;;;0.33;;
16693;SDS011;39538;52.196;9.892;2022-12-29T01:06:31;0.97;;;0.60;;
16693;SDS011;39538;52.196;9.892;2022-12-29T01:08:58;0.80;;;0.80;;
16693;SDS011;39538;52.196;9.892;2022-12-29T01:11:42;0.40;;;0.40;;
16693;SDS011;39538;52.196;9.892;2022-12-29T01:14:10;0.83;;;0.40;;
16693;SDS011;39538;52.196;9.892;2022-12-29T01:16:37;0.63;;;0.50;;
16693;SDS011;39538;52.196;9.892;2022-12-29T01:19:04;0.70;;;0.47;;
16693;SDS011;39538;52.196;9.892;2022-12-29T01:21:34;3.13;;;0.93;;
16693;SDS011;39538;52.196;9.892;2022-12-29T01:24:01;5.10;;;0.70;;
16693;SDS011;39538;52.196;9.892;2022-12-29T01:26:28;2.17;;;0.63;;
16693;SDS011;39538;52.196;9.892;2022-12-29T01:28:56;0.70;;;0.70;;
16693;SDS011;39538;52.196;9.892;2022-12-29T01:31:22;0.40;;;0.40;;
16693;SDS011;39538;52.196;9.892;2022-12-29T01:33:49;1.20;;;0.40;;
16693;SDS011;39538;52.196;9.892;2022-12-29T01:36:16;0.40;;;0.40;;
16693;SDS011;39538;52.196;9.892;2022-12-29T01:38:43;0.47;;;0.40;;
16693;SDS011;39538;52.196;9.892;2022-12-29T01:41:11;0.70;;;0.70;;
16693;SDS011;39538;52.196;9.892;2022-12-29T01:43:40;0.57;;;0.57;;
16693;SDS011;39538;52.196;9.892;2022-12-29T01:46:11;0.40;;;0.40;;
16693;SDS011;39538;52.196;9.892;2022-12-29T01:48:53;0.67;;;0.60;;
16693;SDS011;39538;52.196;9.892;2022-12-29T01:51:23;0.80;;;0.73;;
16693;SDS011;39538;52.196;9.892;2022-12-29T01:53:52;1.57;;;0.53;;
16693;SDS011;39538;52.196;9.892;2022-12-29T01:56:25;0.63;;;0.63;;
16693;SDS011;39538;52.196;9.892;2022-12-29T01:58:54;0.87;;;0.70;;
16693;SDS011;39538;52.196;9.892;2022-12-29T02:01:27;0.83;;;0.80;;
16693;SDS011;39538;52.196;9.892;2022-12-29T02:03:54;0.70;;;0.60;;
16693;SDS011;39538;52.196;9.892;2022-12-29T02:06:22;2.40;;;0.50;;
16693;SDS011;39538;52.196;9.892;2022-12-29T02:08:52;2.17;;;0.53;;
16693;SDS011;39538;52.196;9.892;2022-12-29T02:11:21;0.33;;;0.33;;
16693;SDS011;39538;52.196;9.892;2022-12-29T02:13:50;0.40;;;0.40;;
16693;SDS011;39538;52.196;9.892;2022-12-29T02:16:20;0.37;;;0.33;;
16693;SDS011;39538;52.196;9.892;2022-12-29T02:19:00;0.50;;;0.50;;
16693;SDS011;39538;52.196;9.892;2022-12-29T02:21:48;5.30;;;0.83;;
16693;SDS011;39538;52.196;9.892;2022-12-29T02:24:37;0.50;;;0.43;;
16693;SDS011;39538;52.196;9.892;2022-12-29T02:30:37;0.50;;;0.40;;
16693;SDS011;39538;52.196;9.892;2022-12-29T02:33:12;1.63;;;0.73;;
16693;SDS011;39538;52.196;9.892;2022-12-29T02:35:48;0.40;;;0.40;;
16693;SDS011;39538;52.196;9.892;2022-12-29T02:38:25;0.77;;;0.40;;
16693;SDS011;39538;52.196;9.892;2022-12-29T02:41:00;0.57;;;0.40;;
16693;SDS011;39538;52.196;9.892;2022-12-29T02:43:35;0.50;;;0.30;;
16693;SDS011;39538;52.196;9.892;2022-12-29T02:46:09;1.70;;;0.33;;
16693;SDS011;39538;52.196;9.892;2022-12-29T02:48:41;1.03;;;0.60;;
16693;SDS011;39538;52.196;9.892;2022-12-29T02:51:12;0.57;;;0.57;;
16693;SDS011;39538;52.196;9.892;2022-12-29T02:53:44;0.40;;;0.40;;
16693;SDS011;39538;52.196;9.892;2022-12-29T02:56:29;0.80;;;0.70;;
16693;SDS011;39538;52.196;9.892;2022-12-29T02:58:56;0.47;;;0.47;;
16693;SDS011;39538;52.196;9.892;2022-12-29T03:01:27;0.63;;;0.47;;
16693;SDS011;39538;52.196;9.892;2022-12-29T03:04:09;3.47;;;0.67;;
16693;SDS011;39538;52.196;9.892;2022-12-29T03:06:52;0.50;;;0.50;;
16693;SDS011;39538;52.196;9.892;2022-12-29T03:09:26;0.37;;;0.37;;
16693;SDS011;39538;52.196;9.892;2022-12-29T03:12:03;0.53;;;0.40;;
16693;SDS011;39538;52.196;9.892;2022-12-29T03:14:39;0.40;;;0.40;;
16693;SDS011;39538;52.196;9.892;2022-12-29T03:17:37;0.87;;;0.60;;
16693;SDS011;39538;52.196;9.892;2022-12-29T03:20:13;0.53;;;0.53;;
16693;SDS011;39538;52.196;9.892;2022-12-29T03:22:44;0.97;;;0.63;;
16693;SDS011;39538;52.196;9.892;2022-12-29T03:25:16;0.50;;;0.50;;
16693;SDS011;39538;52.196;9.892;2022-12-29T03:27:49;1.03;;;0.63;;
16693;SDS011;39538;52.196;9.892;2022-12-29T03:30:19;0.40;;;0.40;;
16693;SDS011;39538;52.196;9.892;2022-12-29T03:32:48;1.03;;;0.50;;
16693;SDS011;39538;52.196;9.892;2022-12-29T03:35:19;0.93;;;0.57;;
16693;SDS011;39538;52.196;9.892;2022-12-29T03:37:50;1.57;;;0.47;;
16693;SDS011;39538;52.196;9.892;2022-12-29T03:40:21;0.70;;;0.70;;
16693;SDS011;39538;52.196;9.892;2022-12-29T03:42:49;0.47;;;0.40;;
16693;SDS011;39538;52.196;9.892;2022-12-29T03:45:17;0.47;;;0.47;;
16693;SDS011;39538;52.196;9.892;2022-12-29T03:47:43;0.43;;;0.43;;
16693;SDS011;39538;52.196;9.892;2022-12-29T03:50:12;0.40;;;0.40;;
16693;SDS011;39538;52.196;9.892;2022-12-29T03:52:39;0.90;;;0.87;;
16693;SDS011;39538;52.196;9.892;2022-12-29T03:55:08;1.20;;;0.40;;
16693;SDS011;39538;52.196;9.892;2022-12-29T03:57:39;0.47;;;0.47;;
16693;SDS011;39538;52.196;9.892;2022-12-29T04:00:15;1.13;;;0.50;;
16693;SDS011;39538;52.196;9.892;2022-12-29T04:02:42;0.50;;;0.40;;
16693;SDS011;39538;52.196;9.892;2022-12-29T04:05:15;1.77;;;0.60;;
16693;SDS011;39538;52.196;9.892;2022-12-29T04:07:43;0.70;;;0.60;;
16693;SDS011;39538;52.196;9.892;2022-12-29T04:10:10;0.50;;;0.47;;
16693;SDS011;39538;52.196;9.892;2022-12-29T04:12:39;0.50;;;0.50;;
16693;SDS011;39538;52.196;9.892;2022-12-29T04:15:07;0.53;;;0.40;;
16693;SDS011;39538;52.196;9.892;2022-12-29T04:17:34;0.40;;;0.40;;
16693;SDS011;39538;52.196;9.892;2022-12-29T04:20:01;0.57;;;0.50;;
16693;SDS011;39538;52.196;9.892;2022-12-29T04:22:43;0.97;;;0.50;;
16693;SDS011;39538;52.196;9.892;2022-12-29T04:25:12;4.70;;;0.50;;
16693;SDS011;39538;52.196;9.892;2022-12-29T04:27:39;0.40;;;0.40;;
16693;SDS011;39538;52.196;9.892;2022-12-29T04:30:06;0.40;;;0.40;;
16693;SDS011;39538;52.196;9.892;2022-12-29T04:32:33;0.40;;;0.40;;
16693;SDS011;39538;52.196;9.892;2022-12-29T04:34:59;0.37;;;0.37;;
16693;SDS011;39538;52.196;9.892;2022-12-29T04:37:26;0.37;;;0.37;;
16693;SDS011;39538;52.196;9.892;2022-12-29T04:39:54;0.53;;;0.53;;
16693;SDS011;39538;52.196;9.892;2022-12-29T04:42:20;0.60;;;0.30;;
16693;SDS011;39538;52.196;9.892;2022-12-29T04:44:47;2.20;;;0.50;;
16693;SDS011;39538;52.196;9.892;2022-12-29T04:47:13;0.47;;;0.47;;
16693;SDS011;39538;52.196;9.892;2022-12-29T04:49:40;0.47;;;0.47;;
16693;SDS011;39538;52.196;9.892;2022-12-29T04:52:06;0.30;;;0.30;;
16693;SDS011;39538;52.196;9.892;2022-12-29T04:54:33;0.73;;;0.60;;
16693;SDS011;39538;52.196;9.892;2022-12-29T04:57:01;0.50;;;0.50;;
16693;SDS011;39538;52.196;9.892;2022-12-29T04:59:28;0.23;;;0.23;;
16693;SDS011;39538;52.196;9.892;2022-12-29T05:01:57;0.40;;;0.40;;
16693;SDS011;39538;52.196;9.892;2022-12-29T05:04:23;0.30;;;0.30;;
16693;SDS011;39538;52.196;9.892;2022-12-29T05:06:50;0.20;;;0.20;;
16693;SDS011;39538;52.196;9.892;2022-12-29T05:09:24;0.23;;;0.23;;
16693;SDS011;39538;52.196;9.892;2022-12-29T05:11:50;0.30;;;0.30;;
16693;SDS011;39538;52.196;9.892;2022-12-29T05:14:19;0.30;;;0.30;;
16693;SDS011;39538;52.196;9.892;2022-12-29T05:16:45;0.30;;;0.30;;
16693;SDS011;39538;52.196;9.892;2022-12-29T05:19:12;0.30;;;0.30;;
16693;SDS011;39538;52.196;9.892;2022-12-29T05:21:39;1.40;;;0.50;;
16693;SDS011;39538;52.196;9.892;2022-12-29T05:24:05;0.17;;;0.17;;
16693;SDS011;39538;52.196;9.892;2022-12-29T05:26:32;0.83;;;0.20;;
16693;SDS011;39538;52.196;9.892;2022-12-29T05:28:58;0.30;;;0.30;;
16693;SDS011;39538;52.196;9.892;2022-12-29T05:31:27;1.80;;;0.33;;
16693;SDS011;39538;52.196;9.892;2022-12-29T05:33:53;0.30;;;0.30;;
16693;SDS011;39538;52.196;9.892;2022-12-29T05:36:20;0.30;;;0.30;;
16693;SDS011;39538;52.196;9.892;2022-12-29T05:38:46;0.20;;;0.20;;
16693;SDS011;39538;52.196;9.892;2022-12-29T05:41:13;0.30;;;0.30;;
16693;SDS011;39538;52.196;9.892;2022-12-29T05:43:40;0.30;;;0.30;;
16693;SDS011;39538;52.196;9.892;2022-12-29T05:46:06;0.93;;;0.30;;
16693;SDS011;39538;52.196;9.892;2022-12-29T05:48:34;0.63;;;0.40;;
16693;SDS011;39538;52.196;9.892;2022-12-29T05:51:00;2.03;;;0.30;;
16693;SDS011;39538;52.196;9.892;2022-12-29T05:53:27;0.37;;;0.37;;
16693;SDS011;39538;52.196;9.892;2022-12-29T05:55:53;0.30;;;0.30;;
16693;SDS011;39538;52.196;9.892;2022-12-29T05:58:20;0.37;;;0.27;;
16693;SDS011;39538;52.196;9.892;2022-12-29T06:00:46;0.33;;;0.30;;
16693;SDS011;39538;52.196;9.892;2022-12-29T06:03:13;0.53;;;0.40;;
16693;SDS011;39538;52.196;9.892;2022-12-29T06:05:40;0.30;;;0.30;;
16693;SDS011;39538;52.196;9.892;2022-12-29T06:08:07;0.30;;;0.30;;
16693;SDS011;39538;52.196;9.892;2022-12-29T06:10:33;0.63;;;0.40;;
16693;SDS011;39538;52.196;9.892;2022-12-29T06:13:00;0.40;;;0.40;;
16693;SDS011;39538;52.196;9.892;2022-12-29T06:15:26;0.63;;;0.63;;
16693;SDS011;39538;52.196;9.892;2022-12-29T06:17:53;1.57;;;1.43;;
16693;SDS011;39538;52.196;9.892;2022-12-29T06:20:19;0.43;;;0.43;;
16693;SDS011;39538;52.196;9.892;2022-12-29T06:22:47;0.53;;;0.50;;
16693;SDS011;39538;52.196;9.892;2022-12-29T06:25:14;0.43;;;0.40;;
16693;SDS011;39538;52.196;9.892;2022-12-29T06:27:41;0.70;;;0.30;;
16693;SDS011;39538;52.196;9.892;2022-12-29T06:30:08;0.40;;;0.40;;
16693;SDS011;39538;52.196;9.892;2022-12-29T06:32:36;0.37;;;0.37;;
16693;SDS011;39538;52.196;9.892;2022-12-29T06:35:02;0.30;;;0.30;;
16693;SDS011;39538;52.196;9.892;2022-12-29T06:37:30;1.10;;;0.20;;
16693;SDS011;39538;52.196;9.892;2022-12-29T06:39:58;0.33;;;0.33;;
16693;SDS011;39538;52.196;9.892;2022-12-29T06:42:25;0.30;;;0.30;;
16693;SDS011;39538;52.196;9.892;2022-12-29T06:44:51;0.40;;;0.30;;
16693;SDS011;39538;52.196;9.892;2022-12-29T06:47:18;0.30;;;0.30;;
16693;SDS011;39538;52.196;9.892;2022-12-29T06:49:44;0.20;;;0.20;;
16693;SDS011;39538;52.196;9.892;2022-12-29T06:52:11;0.30;;;0.30;;
16693;SDS011;39538;52.196;9.892;2022-12-29T06:54:38;0.20;;;0.20;;
16693;SDS011;39538;52.196;9.892;2022-12-29T06:57:05;0.30;;;0.30;;
16693;SDS011;39538;52.196;9.892;2022-12-29T06:59:32;0.60;;;0.60;;
16693;SDS011;39538;52.196;9.892;2022-12-29T07:01:59;0.20;;;0.20;;
16693;SDS011;39538;52.196;9.892;2022-12-29T07:04:26;0.23;;;0.23;;
16693;SDS011;39538;52.196;9.892;2022-12-29T07:06:53;0.30;;;0.30;;
16693;SDS011;39538;52.196;9.892;2022-12-29T07:09:19;0.20;;;0.20;;
16693;SDS011;39538;52.196;9.892;2022-12-29T07:11:46;0.20;;;0.20;;
16693;SDS011;39538;52.196;9.892;2022-12-29T07:14:14;0.47;;;0.47;;
16693;SDS011;39538;52.196;9.892;2022-12-29T07:16:40;0.83;;;0.60;;
16693;SDS011;39538;52.196;9.892;2022-12-29T07:19:06;0.50;;;0.30;;
16693;SDS011;39538;52.196;9.892;2022-12-29T07:21:33;0.23;;;0.23;;
16693;SDS011;39538;52.196;9.892;2022-12-29T07:23:59;0.30;;;0.30;;
16693;SDS011;39538;52.196;9.892;2022-12-29T07:26:26;0.30;;;0.30;;
16693;SDS011;39538;52.196;9.892;2022-12-29T07:28:52;0.30;;;0.30;;
16693;SDS011;39538;52.196;9.892;2022-12-29T07:31:21;0.33;;;0.33;;
16693;SDS011;39538;52.196;9.892;2022-12-29T07:33:49;0.40;;;0.20;;
16693;SDS011;39538;52.196;9.892;2022-12-29T07:36:15;0.87;;;0.40;;
16693;SDS011;39538;52.196;9.892;2022-12-29T07:38:42;0.30;;;0.30;;
16693;SDS011;39538;52.196;9.892;2022-12-29T07:41:09;1.37;;;0.30;;
16693;SDS011;39538;52.196;9.892;2022-12-29T07:43:36;0.30;;;0.30;;
16693;SDS011;39538;52.196;9.892;2022-12-29T07:46:02;0.50;;;0.50;;
16693;SDS011;39538;52.196;9.892;2022-12-29T07:48:30;0.30;;;0.30;;
16693;SDS011;39538;52.196;9.892;2022-12-29T07:50:58;0.33;;;0.20;;
16693;SDS011;39538;52.196;9.892;2022-12-29T07:53:25;0.57;;;0.40;;
16693;SDS011;39538;52.196;9.892;2022-12-29T07:55:51;0.37;;;0.37;;
16693;SDS011;39538;52.196;9.892;2022-12-29T07:58:17;1.00;;;0.40;;
16693;SDS011;39538;52.196;9.892;2022-12-29T08:00:44;0.30;;;0.30;;
16693;SDS011;39538;52.196;9.892;2022-12-29T08:03:10;0.30;;;0.30;;
16693;SDS011;39538;52.196;9.892;2022-12-29T08:05:38;0.40;;;0.40;;
16693;SDS011;39538;52.196;9.892;2022-12-29T08:08:05;0.40;;;0.40;;
16693;SDS011;39538;52.196;9.892;2022-12-29T08:10:31;0.30;;;0.30;;
16693;SDS011;39538;52.196;9.892;2022-12-29T08:12:58;0.20;;;0.20;;
16693;SDS011;39538;52.196;9.892;2022-12-29T08:15:24;0.30;;;0.30;;
16693;SDS011;39538;52.196;9.892;2022-12-29T08:17:51;0.30;;;0.30;;
16693;SDS011;39538;52.196;9.892;2022-12-29T08:20:17;0.60;;;0.53;;
16693;SDS011;39538;52.196;9.892;2022-12-29T08:22:45;0.50;;;0.50;;
16693;SDS011;39538;52.196;9.892;2022-12-29T08:25:12;0.40;;;0.40;;
16693;SDS011;39538;52.196;9.892;2022-12-29T08:27:38;0.50;;;0.47;;
16693;SDS011;39538;52.196;9.892;2022-12-29T08:30:05;0.50;;;0.47;;
16693;SDS011;39538;52.196;9.892;2022-12-29T08:32:33;4.17;;;1.00;;
16693;SDS011;39538;52.196;9.892;2022-12-29T08:35:00;0.50;;;0.50;;
16693;SDS011;39538;52.196;9.892;2022-12-29T08:37:26;0.50;;;0.50;;
16693;SDS011;39538;52.196;9.892;2022-12-29T08:39:54;0.30;;;0.30;;
16693;SDS011;39538;52.196;9.892;2022-12-29T08:42:22;0.40;;;0.40;;
16693;SDS011;39538;52.196;9.892;2022-12-29T08:44:55;0.40;;;0.40;;
16693;SDS011;39538;52.196;9.892;2022-12-29T08:47:22;0.40;;;0.40;;
16693;SDS011;39538;52.196;9.892;2022-12-29T08:49:51;0.53;;;0.53;;
16693;SDS011;39538;52.196;9.892;2022-12-29T08:52:18;0.80;;;0.80;;
16693;SDS011;39538;52.196;9.892;2022-12-29T08:54:45;1.37;;;0.60;;
16693;SDS011;39538;52.196;9.892;2022-12-29T08:57:13;0.80;;;0.70;;
16693;SDS011;39538;52.196;9.892;2022-12-29T08:59:39;11.13;;;0.90;;
16693;SDS011;39538;52.196;9.892;2022-12-29T09:02:08;1.27;;;1.17;;
16693;SDS011;39538;52.196;9.892;2022-12-29T09:04:36;0.60;;;0.60;;
16693;SDS011;39538;52.196;9.892;2022-12-29T09:07:03;3.10;;;0.83;;
16693;SDS011;39538;52.196;9.892;2022-12-29T09:09:30;0.80;;;0.80;;
16693;SDS011;39538;52.196;9.892;2022-12-29T09:11:57;0.90;;;0.90;;
16693;SDS011;39538;52.196;9.892;2022-12-29T09:14:25;1.10;;;1.10;;
16693;SDS011;39538;52.196;9.892;2022-12-29T09:16:52;1.47;;;1.07;;
16693;SDS011;39538;52.196;9.892;2022-12-29T09:19:36;1.70;;;1.60;;
16693;SDS011;39538;52.196;9.892;2022-12-29T09:22:02;1.70;;;1.70;;
16693;SDS011;39538;52.196;9.892;2022-12-29T09:24:29;2.33;;;1.93;;
16693;SDS011;39538;52.196;9.892;2022-12-29T09:26:56;1.30;;;1.30;;
16693;SDS011;39538;52.196;9.892;2022-12-29T09:29:22;1.20;;;1.20;;
16693;SDS011;39538;52.196;9.892;2022-12-29T09:31:51;1.27;;;1.27;;
16693;SDS011;39538;52.196;9.892;2022-12-29T09:34:17;1.63;;;1.60;;
16693;SDS011;39538;52.196;9.892;2022-12-29T09:36:44;1.73;;;1.63;;
16693;SDS011;39538;52.196;9.892;2022-12-29T09:39:11;1.60;;;1.60;;
16693;SDS011;39538;52.196;9.892;2022-12-29T09:41:39;3.07;;;2.93;;
16693;SDS011;39538;52.196;9.892;2022-12-29T09:44:12;1.53;;;1.50;;
16693;SDS011;39538;52.196;9.892;2022-12-29T09:46:47;1.43;;;1.40;;
16693;SDS011;39538;52.196;9.892;2022-12-29T09:49:20;1.40;;;1.40;;
16693;SDS011;39538;52.196;9.892;2022-12-29T09:51:53;1.80;;;1.70;;
16693;SDS011;39538;52.196;9.892;2022-12-29T09:54:23;2.53;;;1.60;;
16693;SDS011;39538;52.196;9.892;2022-12-29T09:57:00;1.80;;;1.70;;
16693;SDS011;39538;52.196;9.892;2022-12-29T09:59:31;1.97;;;1.23;;
16693;SDS011;39538;52.196;9.892;2022-12-29T10:02:11;2.40;;;2.27;;
16693;SDS011;39538;52.196;9.892;2022-12-29T10:04:48;4.80;;;1.63;;
16693;SDS011;39538;52.196;9.892;2022-12-29T10:07:16;1.63;;;0.90;;
16693;SDS011;39538;52.196;9.892;2022-12-29T10:09:53;1.00;;;1.00;;
16693;SDS011;39538;52.196;9.892;2022-12-29T10:12:30;0.60;;;0.60;;
16693;SDS011;39538;52.196;9.892;2022-12-29T10:15:09;0.67;;;0.67;;
16693;SDS011;39538;52.196;9.892;2022-12-29T10:17:40;0.70;;;0.70;;
16693;SDS011;39538;52.196;9.892;2022-12-29T10:20:18;1.23;;;0.60;;
16693;SDS011;39538;52.196;9.892;2022-12-29T10:22:55;0.63;;;0.63;;
16693;SDS011;39538;52.196;9.892;2022-12-29T10:25:32;0.57;;;0.37;;
16693;SDS011;39538;52.196;9.892;2022-12-29T10:28:04;0.73;;;0.57;;
16693;SDS011;39538;52.196;9.892;2022-12-29T10:30:41;0.60;;;0.60;;
16693;SDS011;39538;52.196;9.892;2022-12-29T10:33:11;3.00;;;0.60;;
16693;SDS011;39538;52.196;9.892;2022-12-29T10:35:42;1.50;;;1.27;;
16693;SDS011;39538;52.196;9.892;2022-12-29T10:38:12;0.70;;;0.70;;
16693;SDS011;39538;52.196;9.892;2022-12-29T10:40:45;1.57;;;0.90;;
16693;SDS011;39538;52.196;9.892;2022-12-29T10:43:22;3.03;;;0.50;;
16693;SDS011;39538;52.196;9.892;2022-12-29T10:45:52;1.07;;;1.07;;
16693;SDS011;39538;52.196;9.892;2022-12-29T10:48:21;0.60;;;0.50;;
16693;SDS011;39538;52.196;9.892;2022-12-29T10:50:51;0.40;;;0.40;;
16693;SDS011;39538;52.196;9.892;2022-12-29T10:53:23;5.13;;;1.00;;
16693;SDS011;39538;52.196;9.892;2022-12-29T10:55:54;0.57;;;0.57;;
16693;SDS011;39538;52.196;9.892;2022-12-29T10:58:21;1.70;;;0.50;;
16693;SDS011;39538;52.196;9.892;2022-12-29T11:00:51;2.10;;;0.60;;
16693;SDS011;39538;52.196;9.892;2022-12-29T11:03:29;1.07;;;0.70;;
16693;SDS011;39538;52.196;9.892;2022-12-29T11:06:09;1.80;;;0.50;;
16693;SDS011;39538;52.196;9.892;2022-12-29T11:08:41;0.50;;;0.50;;
16693;SDS011;39538;52.196;9.892;2022-12-29T11:11:14;1.17;;;0.40;;
16693;SDS011;39538;52.196;9.892;2022-12-29T11:13:54;0.40;;;0.40;;
16693;SDS011;39538;52.196;9.892;2022-12-29T11:16:26;0.90;;;0.60;;
16693;SDS011;39538;52.196;9.892;2022-12-29T11:18:55;0.73;;;0.30;;
16693;SDS011;39538;52.196;9.892;2022-12-29T11:21:29;0.60;;;0.40;;
16693;SDS011;39538;52.196;9.892;2022-12-29T11:24:00;4.20;;;0.47;;
16693;SDS011;39538;52.196;9.892;2022-12-29T11:26:28;0.63;;;0.63;;
16693;SDS011;39538;52.196;9.892;2022-12-29T11:31:56;1.30;;;0.20;;
16693;SDS011;39538;52.196;9.892;2022-12-29T11:34:24;0.67;;;0.47;;
16693;SDS011;39538;52.196;9.892;2022-12-29T11:36:57;2.07;;;0.80;;
16693;SDS011;39538;52.196;9.892;2022-12-29T11:39:29;2.43;;;0.40;;
16693;SDS011;39538;52.196;9.892;2022-12-29T11:41:59;0.40;;;0.30;;
16693;SDS011;39538;52.196;9.892;2022-12-29T11:44:27;1.30;;;0.30;;
16693;SDS011;39538;52.196;9.892;2022-12-29T11:47:01;4.37;;;0.57;;
16693;SDS011;39538;52.196;9.892;2022-12-29T11:49:28;2.53;;;0.33;;
16693;SDS011;39538;52.196;9.892;2022-12-29T11:51:55;0.47;;;0.40;;
16693;SDS011;39538;52.196;9.892;2022-12-29T11:54:23;0.40;;;0.30;;
16693;SDS011;39538;52.196;9.892;2022-12-29T11:56:51;2.23;;;0.43;;
16693;SDS011;39538;52.196;9.892;2022-12-29T11:59:34;1.50;;;0.60;;
16693;SDS011;39538;52.196;9.892;2022-12-29T12:02:11;0.37;;;0.37;;
16693;SDS011;39538;52.196;9.892;2022-12-29T12:05:02;0.70;;;0.30;;
16693;SDS011;39538;52.196;9.892;2022-12-29T12:07:39;1.53;;;0.50;;
16693;SDS011;39538;52.196;9.892;2022-12-29T12:10:11;1.07;;;0.47;;
16693;SDS011;39538;52.196;9.892;2022-12-29T12:12:44;1.00;;;0.30;;
16693;SDS011;39538;52.196;9.892;2022-12-29T12:15:16;1.80;;;1.63;;
16693;SDS011;39538;52.196;9.892;2022-12-29T12:17:49;1.90;;;0.60;;
16693;SDS011;39538;52.196;9.892;2022-12-29T12:20:20;2.63;;;0.90;;
16693;SDS011;39538;52.196;9.892;2022-12-29T12:22:53;0.47;;;0.30;;
16693;SDS011;39538;52.196;9.892;2022-12-29T12:25:25;1.50;;;0.57;;
16693;SDS011;39538;52.196;9.892;2022-12-29T12:28:00;1.40;;;1.03;;
16693;SDS011;39538;52.196;9.892;2022-12-29T12:30:36;0.50;;;0.50;;
16693;SDS011;39538;52.196;9.892;2022-12-29T12:33:10;1.60;;;0.70;;
16693;SDS011;39538;52.196;9.892;2022-12-29T12:35:46;1.30;;;0.70;;
16693;SDS011;39538;52.196;9.892;2022-12-29T12:38:23;1.10;;;0.97;;
16693;SDS011;39538;52.196;9.892;2022-12-29T12:41:05;0.70;;;0.70;;
16693;SDS011;39538;52.196;9.892;2022-12-29T12:43:43;2.83;;;1.17;;
16693;SDS011;39538;52.196;9.892;2022-12-29T12:46:18;2.03;;;0.90;;
16693;SDS011;39538;52.196;9.892;2022-12-29T12:49:07;2.43;;;1.40;;
16693;SDS011;39538;52.196;9.892;2022-12-29T12:51:59;3.17;;;1.00;;
16693;SDS011;39538;52.196;9.892;2022-12-29T12:54:38;0.80;;;0.80;;
16693;SDS011;39538;52.196;9.892;2022-12-29T12:57:22;3.50;;;1.03;;
16693;SDS011;39538;52.196;9.892;2022-12-29T13:00:07;0.80;;;0.67;;
16693;SDS011;39538;52.196;9.892;2022-12-29T13:03:09;2.57;;;0.80;;
16693;SDS011;39538;52.196;9.892;2022-12-29T13:05:47;0.93;;;0.50;;
16693;SDS011;39538;52.196;9.892;2022-12-29T13:11:19;0.50;;;0.50;;
16693;SDS011;39538;52.196;9.892;2022-12-29T13:13:57;2.33;;;1.37;;
16693;SDS011;39538;52.196;9.892;2022-12-29T13:16:32;2.83;;;0.90;;
16693;SDS011;39538;52.196;9.892;2022-12-29T13:19:04;1.93;;;1.40;;
16693;SDS011;39538;52.196;9.892;2022-12-29T13:21:40;1.20;;;0.80;;
16693;SDS011;39538;52.196;9.892;2022-12-29T13:24:19;1.03;;;0.80;;
16693;SDS011;39538;52.196;9.892;2022-12-29T13:26:53;1.97;;;0.67;;
16693;SDS011;39538;52.196;9.892;2022-12-29T13:29:27;1.80;;;0.73;;
16693;SDS011;39538;52.196;9.892;2022-12-29T13:32:03;2.30;;;0.97;;
16693;SDS011;39538;52.196;9.892;2022-12-29T13:34:44;0.90;;;0.70;;
16693;SDS011;39538;52.196;9.892;2022-12-29T13:37:18;2.07;;;0.63;;
16693;SDS011;39538;52.196;9.892;2022-12-29T13:39:51;5.47;;;0.60;;
16693;SDS011;39538;52.196;9.892;2022-12-29T13:42:22;2.67;;;0.87;;
16693;SDS011;39538;52.196;9.892;2022-12-29T13:44:51;0.67;;;0.60;;
16693;SDS011;39538;52.196;9.892;2022-12-29T13:47:25;0.90;;;0.70;;
16693;SDS011;39538;52.196;9.892;2022-12-29T13:49:56;1.17;;;1.07;;
16693;SDS011;39538;52.196;9.892;2022-12-29T13:52:24;1.47;;;0.80;;
16693;SDS011;39538;52.196;9.892;2022-12-29T13:55:00;1.07;;;0.87;;
16693;SDS011;39538;52.196;9.892;2022-12-29T13:57:38;1.70;;;0.80;;
16693;SDS011;39538;52.196;9.892;2022-12-29T14:00:11;4.03;;;1.30;;
16693;SDS011;39538;52.196;9.892;2022-12-29T14:02:42;1.80;;;1.10;;
16693;SDS011;39538;52.196;9.892;2022-12-29T14:05:36;1.00;;;0.70;;
16693;SDS011;39538;52.196;9.892;2022-12-29T14:08:03;1.53;;;0.60;;
16693;SDS011;39538;52.196;9.892;2022-12-29T14:10:32;3.13;;;0.70;;
16693;SDS011;39538;52.196;9.892;2022-12-29T14:13:05;2.07;;;0.97;;
16693;SDS011;39538;52.196;9.892;2022-12-29T14:15:39;3.17;;;0.90;;
16693;SDS011;39538;52.196;9.892;2022-12-29T14:18:14;4.47;;;1.03;;
16693;SDS011;39538;52.196;9.892;2022-12-29T14:20:47;2.70;;;0.80;;
16693;SDS011;39538;52.196;9.892;2022-12-29T14:23:25;2.10;;;0.80;;
16693;SDS011;39538;52.196;9.892;2022-12-29T14:25:56;1.67;;;0.63;;
16693;SDS011;39538;52.196;9.892;2022-12-29T14:28:26;0.83;;;0.70;;
16693;SDS011;39538;52.196;9.892;2022-12-29T14:30:55;1.00;;;0.90;;
16693;SDS011;39538;52.196;9.892;2022-12-29T14:33:23;1.47;;;0.80;;
16693;SDS011;39538;52.196;9.892;2022-12-29T14:35:52;1.37;;;0.77;;
16693;SDS011;39538;52.196;9.892;2022-12-29T14:38:20;1.53;;;0.87;;
16693;SDS011;39538;52.196;9.892;2022-12-29T14:41:17;2.77;;;0.80;;
16693;SDS011;39538;52.196;9.892;2022-12-29T14:43:53;1.23;;;0.63;;
16693;SDS011;39538;52.196;9.892;2022-12-29T14:46:22;7.00;;;0.80;;
16693;SDS011;39538;52.196;9.892;2022-12-29T14:48:52;1.70;;;1.17;;
16693;SDS011;39538;52.196;9.892;2022-12-29T14:51:28;0.87;;;0.80;;
16693;SDS011;39538;52.196;9.892;2022-12-29T14:53:58;2.17;;;1.03;;
16693;SDS011;39538;52.196;9.892;2022-12-29T14:56:25;5.03;;;1.13;;
16693;SDS011;39538;52.196;9.892;2022-12-29T14:58:56;2.20;;;1.30;;
16693;SDS011;39538;52.196;9.892;2022-12-29T15:01:26;3.03;;;0.70;;
16693;SDS011;39538;52.196;9.892;2022-12-29T15:04:02;3.53;;;0.97;;
16693;SDS011;39538;52.196;9.892;2022-12-29T15:06:38;2.40;;;1.40;;
16693;SDS011;39538;52.196;9.892;2022-12-29T15:09:09;1.20;;;1.10;;
16693;SDS011;39538;52.196;9.892;2022-12-29T15:11:47;1.37;;;0.70;;
16693;SDS011;39538;52.196;9.892;2022-12-29T15:14:30;0.97;;;0.87;;
16693;SDS011;39538;52.196;9.892;2022-12-29T15:16:59;0.90;;;0.70;;
16693;SDS011;39538;52.196;9.892;2022-12-29T15:19:27;3.10;;;0.87;;
16693;SDS011;39538;52.196;9.892;2022-12-29T15:21:54;1.17;;;0.90;;